Terminal Aerodrome Forecast
Issued by NWS Sioux Falls, SD

Home | Current Version | Previous Version | Text Only | Print | Product List | Glossary On
Versions: 1 2 3 4 5 6 7 8 9 10 11 12 13 14 15
000
FTUS43 KFSD 281739
TAFFSD
TAF
KFSD 281739Z 2818/2918 17014G21KT P6SM SKC
     FM290300 17023G29KT P6SM SCT120 WS020/19048KT
     FM290600 19020G32KT P6SM BKN110 WS020/20052KT
     FM290900 25013G22KT P6SM SCT120
     FM291200 30014G32KT P6SM SCT040
     FM291400 31022G38KT P6SM BKN025
     FM291700 32021G31KT P6SM SCT035=

USA.gov is the U.S. government's official web portal to all federal, state and local government web resources and services.